LIMF/TRN METAR and TAF weather

Enter ICAO airport designator
Station Type Date Time Source
LIMF METAR 2019/06/19 06:50 UTC NOAA

LIMF 190650Z VRB01KT CAVOK 22/16 Q1014


Station Type Date Time Source
LIMF Decoded METAR 2019/06/19 06:50 UTC NOAA

Torino / Caselle, Italy (LIMF) 45-13N 007-39E 287M
Jun 19, 2019 - 02:50 AM EDT / 2019.06.19 0650 UTC
Wind: Variable at 1 MPH (1 KT):0
Visibility: greater than 7 mile(s):0
Temperature: 71 F (22 C)
Dew Point: 60 F (16 C)
Relative Humidity: 68%
Pressure (altimeter): 29.94 in. Hg (1014 hPa)
ob: LIMF 190650Z VRB01KT CAVOK 22/16 Q1014
cycle: 7

Station Type Date Time Source
LIMF TAF 2019/06/19 06:25 UTC NOAA

TAF LIMF 190500Z 1906/2006 VRB05KT 9999 SCT050 PPROB40
TEMPO 1906/1910 TSRA PROB30
TEMPO 1920/2006 TSRA

Example: see airport list